Route Details

Aircraft Information
Group: European Fleet
Types: A30F, A31F, B738
Route Data
Distance: 791nm
Duration: 1h 50m
Origin METAR: EETN 171120Z 20011KT 170V230 CAVOK 27/17 Q1015 TEMPO SCT035CB
Dest. METAR: EDDK 171120Z AUTO 26005KT 200V330 CAVOK 25/15 Q1011 NOSIG
Freight Data
(for Aug 18, 2022)
Load Factor:
63%
Manifested Cargo: 48,185lbs
Financial History
Total Freight: 455,095lbs
Average Load: 0lbs/flt
Fuel Used: 196,574lbs
Avg. Fuel Used: 0lbs/flt
Fuel Expense: $70,644
Avg. Fuel Expense: $0
Avg. Fuel Cost: $0/lbs
Total Gross Income: $1,792,122
Pilot Pay: $2,080
Total Expenses: $270,533
Total Revenue: $1,445,005
Average Revenue: $0

Capitol Logistics 509




EETN
Tallinn Airport
Tallinn, EE
EDDK
Cologne Bonn Airport
Cologne, DE